createdAt,value
2023-02-18T00:00:47.124Z,11.63
2023-02-18T00:01:48.877Z,11.64
2023-02-18T00:02:52.624Z,11.57
2023-02-18T00:03:54.628Z,11.67
2023-02-18T00:04:56.501Z,11.41
2023-02-18T00:05:58.434Z,11.39
2023-02-18T00:07:00.315Z,11.63
2023-02-18T00:08:02.108Z,11.60
2023-02-18T00:09:05.415Z,11.51
2023-02-18T00:10:12.925Z,11.60
2023-02-18T00:11:16.520Z,11.63
2023-02-18T00:12:18.260Z,11.64
2023-02-18T00:13:20.043Z,11.60
2023-02-18T00:14:21.803Z,11.39
2023-02-18T00:15:23.620Z,11.65
2023-02-18T00:16:26.660Z,11.66
2023-02-18T00:17:29.940Z,11.66
2023-02-18T00:18:31.759Z,11.58
2023-02-18T00:19:33.528Z,11.66
2023-02-18T00:20:36.359Z,11.64
2023-02-18T00:21:38.485Z,11.61
2023-02-18T00:22:40.294Z,11.56
2023-02-18T00:23:43.932Z,11.52
2023-02-18T00:24:45.925Z,11.53
2023-02-18T00:25:47.694Z,11.49
2023-02-18T00:26:52.318Z,11.57
2023-02-18T00:27:54.112Z,11.30
2023-02-18T00:28:56.131Z,11.53
2023-02-18T00:29:59.359Z,11.45
2023-02-18T00:31:10.314Z,11.55
2023-02-18T00:32:12.190Z,11.37
2023-02-18T00:33:13.932Z,11.44
2023-02-18T00:34:15.729Z,11.37
2023-02-18T00:35:17.670Z,11.30
2023-02-18T00:36:20.810Z,11.45
2023-02-18T00:37:22.603Z,11.32
2023-02-18T00:38:24.425Z,11.44
2023-02-18T00:39:26.241Z,11.44
2023-02-18T00:40:28.037Z,11.21
2023-02-18T00:41:30.439Z,11.44
2023-02-18T00:42:32.232Z,11.30
2023-02-18T00:43:34.001Z,11.37
2023-02-18T00:44:35.789Z,11.23
2023-02-18T00:45:37.531Z,11.12
2023-02-18T00:46:39.846Z,10.96
2023-02-18T00:47:41.805Z,10.70
2023-02-18T00:48:43.763Z,10.67
2023-02-18T00:49:45.585Z,10.71
2023-02-18T00:50:47.514Z,10.65
2023-02-18T00:51:49.310Z,10.58
2023-02-18T00:52:51.113Z,10.48
2023-02-18T00:53:53.412Z,10.44
2023-02-18T00:54:55.156Z,10.36
2023-02-18T00:55:57.034Z,10.07
2023-02-18T00:56:58.779Z,10.33
2023-02-18T00:58:00.517Z,10.14
2023-02-18T00:59:02.306Z,10.34
2023-02-18T01:00:06.205Z,10.34
2023-02-18T01:01:10.370Z,10.34
2023-02-18T01:02:12.255Z,10.21
2023-02-18T01:03:14.789Z,10.32
2023-02-18T01:04:16.649Z,10.07
2023-02-18T01:05:18.460Z,10.30
2023-02-18T01:06:22.262Z,10.29
2023-02-18T01:07:24.152Z,9.99
2023-02-18T01:08:25.915Z,10.11
2023-02-18T01:09:27.739Z,10.26
2023-02-18T01:10:29.529Z,10.25
2023-02-18T01:11:31.375Z,10.24
2023-02-18T01:12:33.130Z,10.04
2023-02-18T01:13:35.500Z,10.16
2023-02-18T01:14:37.305Z,10.12
2023-02-18T01:15:40.204Z,10.10
2023-02-18T01:16:41.957Z,9.93
2023-02-18T01:17:43.759Z,9.92
2023-02-18T01:18:45.586Z,9.78
2023-02-18T01:19:47.373Z,9.63
2023-02-18T01:20:49.190Z,9.72
2023-02-18T01:21:50.917Z,9.70
2023-02-18T01:22:52.943Z,9.69
2023-02-18T01:23:54.792Z,9.79
2023-02-18T01:24:57.037Z,9.60
2023-02-18T01:25:58.985Z,9.69
2023-02-18T01:27:00.720Z,9.54
2023-02-18T01:28:02.529Z,9.38
2023-02-18T01:29:04.492Z,9.58
2023-02-18T01:30:08.416Z,9.46
2023-02-18T01:31:12.845Z,9.33
2023-02-18T01:32:14.905Z,9.19
2023-02-18T01:33:16.700Z,9.10
2023-02-18T01:34:18.529Z,9.16
2023-02-18T01:35:20.805Z,9.34
2023-02-18T01:36:22.652Z,9.25
2023-02-18T01:37:24.389Z,9.24
2023-02-18T01:38:26.121Z,9.20
2023-02-18T01:39:27.912Z,9.06
2023-02-18T01:40:30.372Z,9.15
2023-02-18T01:41:32.225Z,9.10
2023-02-18T01:42:34.022Z,9.05
2023-02-18T01:43:36.180Z,8.98
2023-02-18T01:44:37.982Z,8.89
2023-02-18T01:46:08.007Z,8.81
2023-02-18T01:47:09.888Z,8.67
2023-02-18T01:48:26.576Z,8.62
2023-02-18T01:49:34.666Z,8.56
2023-02-18T01:50:41.923Z,8.55
2023-02-18T01:52:05.767Z,8.28
2023-02-18T01:53:08.293Z,8.28
2023-02-18T01:54:31.686Z,8.22
2023-02-18T01:55:35.952Z,8.15
2023-02-18T01:56:47.280Z,7.95
2023-02-18T01:57:48.956Z,7.98
2023-02-18T01:58:52.916Z,7.78
2023-02-18T02:00:00.934Z,7.65
2023-02-18T02:01:02.965Z,7.58
2023-02-18T02:02:08.838Z,7.68
2023-02-18T02:03:10.633Z,7.25
2023-02-18T02:04:13.044Z,7.52
2023-02-18T02:05:15.680Z,7.43
2023-02-18T02:06:23.066Z,7.10
2023-02-18T02:07:27.347Z,7.18
2023-02-18T02:08:30.127Z,7.28
2023-02-18T02:09:34.373Z,7.34
2023-02-18T02:11:03.719Z,7.30
2023-02-18T02:12:32.077Z,7.34
2023-02-18T02:14:01.647Z,6.99
2023-02-18T02:15:21.728Z,7.26
2023-02-18T02:16:38.405Z,7.25
2023-02-18T02:17:57.091Z,7.00
2023-02-18T02:19:32.698Z,7.06
2023-02-18T02:20:37.492Z,7.05
2023-02-18T02:22:04.147Z,6.99
2023-02-18T02:23:36.171Z,6.73
2023-02-18T02:24:46.552Z,6.76
2023-02-18T02:25:57.615Z,6.71
2023-02-18T02:27:12.002Z,6.70
2023-02-18T02:28:28.470Z,6.61
2023-02-18T02:29:41.942Z,6.54
2023-02-18T02:31:18.243Z,6.51
2023-02-18T02:32:51.418Z,6.33
2023-02-18T02:34:34.028Z,5.98
2023-02-18T02:35:52.598Z,6.25
2023-02-18T02:37:06.503Z,6.17
2023-02-18T02:38:19.000Z,6.21
2023-02-18T02:39:57.792Z,6.24
2023-02-18T02:41:11.263Z,6.20
2023-02-18T02:42:23.359Z,6.20
2023-02-18T02:43:46.896Z,6.20
2023-02-18T02:44:57.544Z,5.97
2023-02-18T02:46:15.661Z,5.99
2023-02-18T02:47:29.005Z,6.07
2023-02-18T02:49:02.689Z,6.19
2023-02-18T02:50:09.463Z,6.14
2023-02-18T02:51:24.325Z,6.29
2023-02-18T02:52:37.793Z,6.22
2023-02-18T02:53:41.980Z,6.17
2023-02-18T02:54:43.878Z,6.23
2023-02-18T02:55:45.728Z,5.91
2023-02-18T02:56:47.518Z,6.29
2023-02-18T02:57:53.256Z,6.29
2023-02-18T02:59:01.378Z,6.35
2023-02-18T03:00:10.218Z,6.11
2023-02-18T03:01:21.094Z,6.38
2023-02-18T03:02:51.640Z,6.28
2023-02-18T03:04:11.569Z,6.36
2023-02-18T03:05:40.664Z,6.20
2023-02-18T03:07:07.064Z,6.17
2023-02-18T03:08:20.781Z,6.16
2023-02-18T03:09:48.375Z,6.20
2023-02-18T03:11:05.507Z,6.14
2023-02-18T03:12:29.550Z,6.02
2023-02-18T03:14:08.627Z,6.09
2023-02-18T03:15:43.884Z,6.17
2023-02-18T03:17:25.273Z,5.96
2023-02-18T03:18:42.645Z,5.96
2023-02-18T03:19:58.495Z,5.67
2023-02-18T03:21:31.863Z,5.96
2023-02-18T03:22:40.076Z,6.05
2023-02-18T03:23:49.565Z,5.93
2023-02-18T03:24:54.873Z,5.98
2023-02-18T03:25:59.477Z,6.11
2023-02-18T03:27:16.406Z,6.35
2023-02-18T03:28:22.861Z,6.19
2023-02-18T03:29:26.377Z,6.35
2023-02-18T03:30:40.823Z,6.68
2023-02-18T03:31:45.059Z,6.50
2023-02-18T03:32:52.281Z,6.76
2023-02-18T03:34:05.888Z,6.93
2023-02-18T03:35:13.445Z,6.90
2023-02-18T03:36:15.292Z,7.07
2023-02-18T03:37:18.250Z,7.14
2023-02-18T03:38:50.496Z,7.21
2023-02-18T03:39:57.318Z,7.13
2023-02-18T03:40:59.457Z,7.18
2023-02-18T03:42:01.431Z,7.40
2023-02-18T03:43:03.404Z,7.48
2023-02-18T03:44:07.880Z,7.56
2023-02-18T03:45:09.796Z,7.58
2023-02-18T03:46:11.838Z,7.53
2023-02-18T03:47:13.957Z,7.48
2023-02-18T03:48:15.736Z,7.75
2023-02-18T03:49:17.544Z,7.77
2023-02-18T03:50:19.349Z,7.87
2023-02-18T03:51:21.288Z,7.91
2023-02-18T03:52:23.040Z,7.80
2023-02-18T03:53:24.799Z,7.88
2023-02-18T03:54:26.548Z,7.76
2023-02-18T03:55:28.358Z,8.14
2023-02-18T03:56:30.100Z,7.99
2023-02-18T03:57:31.918Z,8.21
2023-02-18T03:58:33.681Z,8.19
2023-02-18T03:59:35.804Z,8.21
2023-02-18T04:00:37.775Z,8.11
2023-02-18T04:01:39.881Z,8.38
2023-02-18T04:02:42.098Z,8.41
2023-02-18T04:03:44.058Z,8.39
2023-02-18T04:04:45.829Z,8.41
2023-02-18T04:05:48.213Z,8.19
2023-02-18T04:06:49.957Z,8.49
2023-02-18T04:07:51.752Z,8.53
2023-02-18T04:08:53.476Z,8.54
2023-02-18T04:09:55.258Z,8.35
2023-02-18T04:10:57.070Z,8.44
2023-02-18T04:11:58.808Z,8.62
2023-02-18T04:13:00.598Z,8.38
2023-02-18T04:14:02.346Z,8.63
2023-02-18T04:15:05.065Z,8.62
2023-02-18T04:16:07.377Z,8.50
2023-02-18T04:17:10.188Z,8.53
2023-02-18T04:18:12.372Z,8.58
2023-02-18T04:19:14.103Z,8.27
2023-02-18T04:20:16.782Z,8.19
2023-02-18T04:21:18.562Z,8.53
2023-02-18T04:22:20.336Z,8.50
2023-02-18T04:23:22.145Z,8.24
2023-02-18T04:24:23.929Z,8.44
2023-02-18T04:25:25.962Z,8.20
2023-02-18T04:26:27.810Z,8.26
2023-02-18T04:27:29.560Z,8.32
2023-02-18T04:28:31.366Z,8.08
2023-02-18T04:29:33.208Z,8.20
2023-02-18T04:30:35.095Z,8.28
2023-02-18T04:31:37.045Z,8.04
2023-02-18T04:32:38.982Z,8.24
2023-02-18T04:33:40.832Z,7.99
2023-02-18T04:34:42.689Z,8.19
2023-02-18T04:35:44.514Z,8.08
2023-02-18T04:36:46.389Z,8.08
2023-02-18T04:37:48.149Z,8.00
2023-02-18T04:38:50.075Z,8.00
2023-02-18T04:39:51.802Z,8.05
2023-02-18T04:40:53.610Z,8.11
2023-02-18T04:41:55.382Z,8.09
2023-02-18T04:42:58.465Z,7.99
2023-02-18T04:44:00.829Z,7.75
2023-02-18T04:45:02.683Z,7.88
2023-02-18T04:46:04.935Z,8.02
2023-02-18T04:47:07.623Z,8.03
2023-02-18T04:48:09.459Z,7.90
2023-02-18T04:49:11.207Z,7.97
2023-02-18T04:50:12.991Z,8.10
2023-02-18T04:51:14.799Z,8.13
2023-02-18T04:52:16.719Z,7.93
2023-02-18T04:53:18.465Z,8.20
2023-02-18T04:54:20.203Z,8.15
2023-02-18T04:55:22.046Z,8.30
2023-02-18T04:56:23.912Z,8.32
2023-02-18T04:57:25.741Z,8.15
2023-02-18T04:58:27.621Z,8.29
2023-02-18T04:59:29.397Z,8.44
2023-02-18T05:00:31.208Z,8.25
2023-02-18T05:01:32.998Z,8.51
2023-02-18T05:02:34.810Z,8.41
2023-02-18T05:03:36.622Z,8.61
2023-02-18T05:04:38.408Z,8.69
2023-02-18T05:05:41.954Z,8.51
2023-02-18T05:06:44.300Z,8.61
2023-02-18T05:07:46.104Z,8.65
2023-02-18T05:08:47.861Z,8.83
2023-02-18T05:09:49.634Z,8.71
2023-02-18T05:10:51.488Z,8.92
2023-02-18T05:11:53.303Z,8.70
2023-02-18T05:12:55.054Z,9.02
2023-02-18T05:13:56.840Z,9.08
2023-02-18T05:14:58.664Z,9.09
2023-02-18T05:16:00.701Z,9.03
2023-02-18T05:17:02.494Z,9.10
2023-02-18T05:18:04.516Z,9.21
2023-02-18T05:19:06.622Z,9.11
2023-02-18T05:20:10.071Z,9.24
2023-02-18T05:21:12.327Z,9.23
2023-02-18T05:22:14.494Z,9.07
2023-02-18T05:23:16.306Z,9.19
2023-02-18T05:24:18.137Z,9.17
2023-02-18T05:25:20.019Z,9.23
2023-02-18T05:26:22.249Z,9.23
2023-02-18T05:27:24.049Z,9.29
2023-02-18T05:28:26.047Z,9.18
2023-02-18T05:29:27.807Z,9.19
2023-02-18T05:30:29.638Z,9.39
2023-02-18T05:31:31.930Z,9.15
2023-02-18T05:32:33.748Z,9.37
2023-02-18T05:33:35.531Z,9.53
2023-02-18T05:34:37.272Z,9.37
2023-02-18T05:35:39.058Z,9.51
2023-02-18T05:36:40.793Z,9.45
2023-02-18T05:37:42.525Z,9.62
2023-02-18T05:38:44.325Z,9.56
2023-02-18T05:39:46.247Z,9.48
2023-02-18T05:40:48.056Z,9.40
2023-02-18T05:41:49.793Z,9.71
2023-02-18T05:42:51.526Z,9.50
2023-02-18T05:44:11.809Z,9.74
2023-02-18T05:45:13.612Z,9.66
2023-02-18T05:46:15.370Z,9.64
2023-02-18T05:47:17.232Z,9.77
2023-02-18T05:48:19.030Z,9.55
2023-02-18T05:49:20.804Z,9.85
2023-02-18T05:50:22.643Z,9.87
2023-02-18T05:51:24.454Z,9.59
2023-02-18T05:52:26.431Z,9.81
2023-02-18T05:53:28.177Z,9.83
2023-02-18T05:54:30.732Z,9.05
2023-02-18T05:55:33.443Z,9.90
2023-02-18T05:56:35.335Z,10.01
2023-02-18T05:57:37.113Z,9.77
2023-02-18T05:58:38.878Z,10.10
2023-02-18T05:59:40.607Z,10.14
2023-02-18T06:00:42.398Z,10.13
2023-02-18T06:01:44.853Z,10.20
2023-02-18T06:02:46.813Z,10.20
2023-02-18T06:03:48.628Z,10.18
2023-02-18T06:04:50.512Z,10.29
2023-02-18T06:05:53.010Z,10.30
2023-02-18T06:06:55.026Z,10.42
2023-02-18T06:07:56.919Z,10.44
2023-02-18T06:08:58.699Z,10.48
2023-02-18T06:10:00.597Z,10.41
2023-02-18T06:11:02.671Z,10.33
2023-02-18T06:12:04.708Z,10.51
2023-02-18T06:13:06.446Z,10.36
2023-02-18T06:14:08.308Z,10.35
2023-02-18T06:15:10.518Z,10.50
2023-02-18T06:16:12.406Z,10.59
2023-02-18T06:17:14.938Z,10.57
2023-02-18T06:18:16.678Z,10.50
2023-02-18T06:19:18.497Z,10.61
2023-02-18T06:20:20.320Z,10.72
2023-02-18T06:21:22.205Z,10.64
2023-02-18T06:22:23.964Z,10.65
2023-02-18T06:23:25.718Z,10.29
2023-02-18T06:24:27.531Z,10.63
2023-02-18T06:25:29.298Z,10.66
2023-02-18T06:26:31.200Z,10.71
2023-02-18T06:27:32.927Z,10.68
2023-02-18T06:28:34.684Z,10.58
2023-02-18T06:29:37.045Z,10.60
2023-02-18T06:30:38.957Z,10.66
2023-02-18T06:31:40.846Z,10.44
2023-02-18T06:32:42.713Z,10.67
2023-02-18T06:33:44.553Z,10.66
2023-02-18T06:34:46.320Z,10.66
2023-02-18T06:36:00.140Z,10.44
2023-02-18T06:37:01.995Z,10.54
2023-02-18T06:38:03.935Z,10.52
2023-02-18T06:39:06.204Z,10.48
2023-02-18T06:40:08.839Z,10.58
2023-02-18T06:41:11.703Z,10.36
2023-02-18T06:42:13.513Z,10.59
2023-02-18T06:43:15.314Z,10.44
2023-02-18T06:44:17.583Z,10.56
2023-02-18T06:45:19.615Z,10.58
2023-02-18T06:46:21.419Z,10.62
2023-02-18T06:47:23.135Z,10.56
2023-02-18T06:48:25.176Z,10.63
2023-02-18T06:49:26.961Z,10.63
2023-02-18T06:50:28.700Z,10.62
2023-02-18T06:51:30.592Z,10.45
2023-02-18T06:52:33.637Z,10.62
2023-02-18T06:53:35.442Z,10.57
2023-02-18T06:54:37.269Z,10.46
2023-02-18T06:55:39.399Z,10.62
2023-02-18T06:56:41.176Z,10.47
2023-02-18T06:57:42.962Z,10.55
2023-02-18T06:58:45.014Z,10.76
2023-02-18T06:59:46.746Z,10.82
2023-02-18T07:00:48.522Z,10.90
2023-02-18T07:01:50.312Z,10.78
2023-02-18T07:02:52.062Z,11.07
2023-02-18T07:03:53.888Z,11.20
2023-02-18T07:04:55.775Z,11.27
2023-02-18T07:05:57.505Z,11.44
2023-02-18T07:06:59.337Z,11.57
2023-02-18T07:08:01.566Z,11.75
2023-02-18T07:09:03.329Z,11.82
2023-02-18T07:10:05.983Z,12.05
2023-02-18T07:11:07.805Z,12.21
2023-02-18T07:12:09.635Z,12.61
2023-02-18T07:13:11.456Z,12.73
2023-02-18T07:14:13.210Z,12.96
2023-02-18T07:15:15.895Z,13.23
2023-02-18T07:16:17.703Z,13.52
2023-02-18T07:17:19.718Z,13.76
2023-02-18T07:18:21.534Z,13.99
2023-02-18T07:19:23.291Z,14.32
2023-02-18T07:20:25.611Z,14.47
2023-02-18T07:21:27.633Z,14.46
2023-02-18T07:22:29.386Z,14.66
2023-02-18T07:23:31.145Z,14.88
2023-02-18T07:24:32.945Z,15.04
2023-02-18T07:25:34.762Z,15.09
2023-02-18T07:26:36.581Z,15.17
2023-02-18T07:27:38.351Z,15.27
2023-02-18T07:28:41.402Z,15.59
2023-02-18T07:29:43.159Z,15.76
2023-02-18T07:30:45.035Z,15.88
2023-02-18T07:31:46.872Z,15.95
2023-02-18T07:32:48.850Z,16.24
2023-02-18T07:33:50.614Z,16.21
2023-02-18T07:34:53.177Z,16.51
2023-02-18T07:35:57.161Z,16.67
2023-02-18T07:36:58.925Z,16.84
2023-02-18T07:38:03.040Z,16.78
2023-02-18T07:39:04.903Z,16.59
2023-02-18T07:40:07.443Z,16.60
2023-02-18T07:41:21.844Z,16.60
2023-02-18T07:42:23.694Z,16.36
2023-02-18T07:43:25.783Z,16.57
2023-02-18T07:44:27.814Z,16.43
2023-02-18T07:45:29.611Z,16.48
2023-02-18T07:46:31.479Z,16.35
2023-02-18T07:47:33.222Z,16.24
2023-02-18T07:48:35.232Z,16.24
2023-02-18T07:49:36.959Z,16.16
2023-02-18T07:50:43.341Z,16.04
2023-02-18T07:51:48.611Z,15.71
2023-02-18T07:52:50.343Z,16.33
2023-02-18T07:53:52.089Z,16.52
2023-02-18T07:54:53.843Z,16.69
2023-02-18T07:55:55.585Z,16.94
2023-02-18T07:56:57.363Z,17.08
2023-02-18T07:58:01.125Z,16.97
2023-02-18T07:59:03.298Z,17.00
2023-02-18T08:00:05.398Z,17.07
2023-02-18T08:01:10.117Z,17.42
2023-02-18T08:02:18.950Z,17.50
2023-02-18T08:03:23.148Z,17.26
2023-02-18T08:04:24.962Z,17.20
2023-02-18T08:05:26.718Z,17.17
2023-02-18T08:06:33.685Z,17.07
2023-02-18T08:07:35.470Z,16.93
2023-02-18T08:08:37.394Z,16.79
2023-02-18T08:09:39.177Z,17.03
2023-02-18T08:10:41.622Z,16.94
2023-02-18T08:11:44.124Z,17.13
2023-02-18T08:12:45.918Z,17.25
2023-02-18T08:13:48.660Z,17.16
2023-02-18T08:14:51.384Z,17.48
2023-02-18T08:16:09.806Z,18.16
2023-02-18T08:17:11.755Z,18.62
2023-02-18T08:18:19.145Z,18.82
2023-02-18T08:19:20.894Z,18.79
2023-02-18T08:20:22.939Z,18.59
2023-02-18T08:21:26.343Z,18.59
2023-02-18T08:22:28.279Z,18.57
2023-02-18T08:23:30.062Z,18.88
2023-02-18T08:24:31.809Z,19.10
2023-02-18T08:25:34.298Z,19.27
2023-02-18T08:26:36.176Z,19.29
2023-02-18T08:27:37.926Z,19.14
2023-02-18T08:28:39.797Z,19.36
2023-02-18T08:29:41.542Z,19.35
2023-02-18T08:30:47.690Z,19.50
2023-02-18T08:31:49.585Z,19.28
2023-02-18T08:32:51.418Z,19.47
2023-02-18T08:33:55.615Z,19.33
2023-02-18T08:34:57.444Z,19.29
2023-02-18T08:35:59.170Z,19.27
2023-02-18T08:37:02.910Z,19.21
2023-02-18T08:38:04.660Z,18.89
2023-02-18T08:39:06.354Z,18.53
2023-02-18T08:40:09.736Z,18.47
2023-02-18T08:41:11.589Z,18.47
2023-02-18T08:42:13.368Z,18.50
2023-02-18T08:43:16.947Z,18.40
2023-02-18T08:44:18.675Z,18.46
2023-02-18T08:45:20.422Z,18.63
2023-02-18T08:46:33.233Z,18.89
2023-02-18T08:48:18.071Z,19.14
2023-02-18T08:48:58.206Z,19.31
2023-02-18T08:50:00.188Z,19.48
2023-02-18T08:51:20.889Z,19.59
2023-02-18T08:52:23.136Z,19.63
2023-02-18T08:53:25.180Z,19.49
2023-02-18T08:54:26.986Z,19.39
2023-02-18T08:55:29.136Z,19.37
2023-02-18T08:56:32.667Z,19.29
2023-02-18T08:57:34.411Z,19.55
2023-02-18T08:58:37.606Z,19.72
2023-02-18T08:59:39.412Z,19.65
2023-02-18T09:00:43.450Z,19.73
2023-02-18T09:01:45.279Z,19.84
2023-02-18T09:02:47.946Z,19.90
2023-02-18T09:03:49.744Z,19.67
2023-02-18T09:04:51.540Z,19.22
2023-02-18T09:05:53.234Z,19.13
2023-02-18T09:06:54.946Z,18.94
2023-02-18T09:07:57.100Z,18.89
2023-02-18T09:08:58.927Z,18.81
2023-02-18T09:10:00.635Z,19.03
2023-02-18T09:11:04.776Z,19.34
2023-02-18T09:12:06.774Z,19.67
2023-02-18T09:13:09.056Z,19.79
2023-02-18T09:14:11.253Z,19.98
2023-02-18T09:15:13.060Z,20.19
2023-02-18T09:16:19.002Z,20.35
2023-02-18T09:17:21.022Z,20.37
2023-02-18T09:18:22.761Z,20.48
2023-02-18T09:19:24.966Z,20.70
2023-02-18T09:20:27.926Z,20.60
2023-02-18T09:21:29.850Z,20.39
2023-02-18T09:22:32.809Z,20.29
2023-02-18T09:23:35.693Z,20.42
2023-02-18T09:24:41.475Z,20.29
2023-02-18T09:25:43.176Z,20.14
2023-02-18T09:26:44.915Z,20.08
2023-02-18T09:27:46.606Z,20.08
2023-02-18T09:28:49.420Z,19.99
2023-02-18T09:29:52.280Z,19.90
2023-02-18T09:30:54.142Z,20.00
2023-02-18T09:31:55.974Z,19.93
2023-02-18T09:32:57.718Z,20.13
2023-02-18T09:34:01.543Z,20.17
2023-02-18T09:35:06.404Z,20.23
2023-02-18T09:36:08.490Z,20.20
2023-02-18T09:37:10.658Z,20.17
2023-02-18T09:38:16.254Z,20.41
2023-02-18T09:39:18.206Z,20.58
2023-02-18T09:40:33.008Z,20.51
2023-02-18T09:41:56.887Z,20.41
2023-02-18T09:42:59.367Z,20.21
2023-02-18T09:44:18.460Z,20.01
2023-02-18T09:45:21.884Z,19.87
2023-02-18T09:46:34.357Z,19.59
2023-02-18T09:47:40.325Z,19.48
2023-02-18T09:48:44.790Z,19.31
2023-02-18T09:49:57.823Z,19.11
2023-02-18T09:51:00.270Z,19.10
2023-02-18T09:52:14.436Z,19.20
2023-02-18T09:53:16.444Z,19.26
2023-02-18T09:54:20.468Z,19.08
2023-02-18T09:55:24.922Z,19.05
2023-02-18T09:56:35.951Z,19.16
2023-02-18T09:57:48.246Z,19.38
2023-02-18T09:58:51.105Z,19.52
2023-02-18T10:00:01.052Z,19.64
2023-02-18T10:01:25.365Z,19.67
2023-02-18T10:02:27.558Z,19.75
2023-02-18T10:03:29.949Z,19.98
2023-02-18T10:04:40.906Z,20.33
2023-02-18T10:05:59.782Z,20.68
2023-02-18T10:07:03.827Z,21.01
2023-02-18T10:08:39.605Z,21.42
2023-02-18T10:09:42.229Z,21.87
2023-02-18T10:10:47.917Z,22.03
2023-02-18T10:11:55.215Z,22.11
2023-02-18T10:12:58.565Z,21.89
2023-02-18T10:14:02.743Z,21.87
2023-02-18T10:15:25.187Z,21.86
2023-02-18T10:16:27.599Z,21.98
2023-02-18T10:17:33.269Z,22.20
2023-02-18T10:18:42.086Z,22.42
2023-02-18T10:19:46.237Z,22.72
2023-02-18T10:20:48.683Z,22.82
2023-02-18T10:21:52.632Z,23.08
2023-02-18T10:22:58.875Z,23.20
2023-02-18T10:24:05.663Z,23.20
2023-02-18T10:25:08.231Z,23.32
2023-02-18T10:26:16.402Z,23.31
2023-02-18T10:27:26.020Z,23.50
2023-02-18T10:28:27.853Z,23.48
2023-02-18T10:29:32.357Z,23.78
2023-02-18T10:30:41.351Z,23.80
2023-02-18T10:31:57.205Z,23.89
2023-02-18T10:33:12.424Z,23.90
2023-02-18T10:34:24.165Z,23.72
2023-02-18T10:35:43.556Z,23.55
2023-02-18T10:36:49.804Z,23.26
2023-02-18T10:38:26.183Z,22.73
2023-02-18T10:39:32.982Z,22.99
2023-02-18T10:40:37.928Z,23.20
2023-02-18T10:41:57.822Z,23.27
2023-02-18T10:43:11.293Z,23.24
2023-02-18T10:44:18.576Z,23.22
2023-02-18T10:45:44.686Z,23.38
2023-02-18T10:46:52.115Z,23.45
2023-02-18T10:48:33.143Z,23.68
2023-02-18T10:49:50.208Z,23.81
2023-02-18T10:50:52.729Z,23.88
2023-02-18T10:51:58.049Z,24.00
2023-02-18T10:53:12.950Z,24.25
2023-02-18T10:54:16.039Z,24.41
2023-02-18T10:55:19.096Z,24.58
2023-02-18T10:56:36.312Z,24.59
2023-02-18T10:58:25.417Z,24.41
2023-02-18T10:59:33.623Z,24.37
2023-02-18T11:00:39.621Z,24.38
2023-02-18T11:01:44.004Z,24.32
2023-02-18T11:02:47.588Z,24.40
2023-02-18T11:03:52.172Z,24.32
2023-02-18T11:04:53.999Z,24.25
2023-02-18T11:05:57.020Z,24.32
2023-02-18T11:07:05.276Z,24.57
2023-02-18T11:08:11.008Z,24.83
2023-02-18T11:09:46.754Z,25.10
2023-02-18T11:10:50.067Z,25.27
2023-02-18T11:12:01.486Z,25.42
2023-02-18T11:13:12.730Z,25.65
2023-02-18T11:14:34.049Z,25.90
2023-02-18T11:15:36.627Z,25.97
2023-02-18T11:16:42.426Z,25.90
2023-02-18T11:17:47.044Z,25.83
2023-02-18T11:18:48.902Z,25.70
2023-02-18T11:19:59.023Z,25.49
2023-02-18T11:21:04.261Z,25.46
2023-02-18T11:22:15.231Z,25.31
2023-02-18T11:23:18.695Z,24.95
2023-02-18T11:24:20.614Z,24.65
2023-02-18T11:25:33.730Z,24.31
2023-02-18T11:26:37.391Z,24.11
2023-02-18T11:27:44.056Z,23.93
2023-02-18T11:28:48.645Z,23.74
2023-02-18T11:29:53.989Z,23.61
2023-02-18T11:31:00.423Z,23.58
2023-02-18T11:32:02.509Z,23.64
2023-02-18T11:33:16.178Z,23.57
2023-02-18T11:34:26.490Z,23.54
2023-02-18T11:35:32.253Z,23.60
2023-02-18T11:36:36.376Z,23.59
2023-02-18T11:37:38.372Z,23.49
2023-02-18T11:38:50.223Z,23.41
2023-02-18T11:39:56.171Z,23.36
2023-02-18T11:41:06.713Z,23.29
2023-02-18T11:42:08.624Z,23.31
2023-02-18T11:43:14.805Z,23.48
2023-02-18T11:44:28.458Z,23.36
2023-02-18T11:45:34.040Z,23.27
2023-02-18T11:46:35.819Z,23.32
2023-02-18T11:47:38.097Z,23.16
2023-02-18T11:48:40.135Z,23.22
2023-02-18T11:49:43.939Z,23.26
2023-02-18T11:50:50.319Z,23.25
2023-02-18T11:51:52.480Z,23.09
2023-02-18T11:52:57.562Z,22.97
2023-02-18T11:54:26.567Z,22.92
2023-02-18T11:55:31.195Z,22.57
2023-02-18T11:56:35.162Z,22.61
2023-02-18T11:57:45.106Z,22.56
2023-02-18T11:58:48.848Z,22.60
2023-02-18T11:59:50.557Z,22.61
2023-02-18T12:00:57.119Z,22.70
2023-02-18T12:01:58.758Z,22.69
2023-02-18T12:03:07.638Z,22.68
2023-02-18T12:04:14.066Z,22.70
2023-02-18T12:05:25.613Z,22.80
2023-02-18T12:06:33.678Z,22.86
2023-02-18T12:07:51.290Z,22.81
2023-02-18T12:09:00.961Z,22.60
2023-02-18T12:10:34.887Z,22.49
2023-02-18T12:11:42.475Z,22.39
2023-02-18T12:13:24.236Z,22.37
2023-02-18T12:14:25.928Z,22.20
2023-02-18T12:15:39.738Z,22.22
2023-02-18T12:16:49.403Z,22.09
2023-02-18T12:18:16.417Z,22.05
2023-02-18T12:19:24.168Z,22.10
2023-02-18T12:21:01.152Z,21.95
2023-02-18T12:22:11.787Z,21.90
2023-02-18T12:23:31.541Z,21.84
2023-02-18T12:24:51.987Z,21.80
2023-02-18T12:25:56.282Z,21.84
2023-02-18T12:27:13.124Z,21.96
2023-02-18T12:28:26.835Z,22.06
2023-02-18T12:29:37.262Z,22.10
2023-02-18T12:31:00.697Z,22.08
2023-02-18T12:32:14.457Z,22.04
2023-02-18T12:33:37.353Z,22.03
2023-02-18T12:34:50.785Z,22.04
2023-02-18T12:35:59.646Z,22.11
2023-02-18T12:37:53.449Z,22.16
2023-02-18T12:39:12.844Z,22.25
2023-02-18T12:40:40.455Z,22.13
2023-02-18T12:41:59.685Z,21.88
2023-02-18T12:43:10.179Z,21.84
2023-02-18T12:44:24.846Z,21.77
2023-02-18T12:45:46.271Z,21.76
2023-02-18T12:47:03.105Z,21.64
2023-02-18T12:48:11.010Z,21.63
2023-02-18T12:49:54.008Z,21.57
2023-02-18T12:51:34.582Z,21.51
2023-02-18T12:52:45.220Z,21.52
2023-02-18T12:53:57.048Z,21.58
2023-02-18T12:55:04.409Z,21.55
2023-02-18T12:56:09.343Z,21.48
2023-02-18T12:57:38.960Z,21.41
2023-02-18T12:58:52.427Z,21.34
2023-02-18T13:00:15.659Z,21.33
2023-02-18T13:01:29.262Z,21.28
2023-02-18T13:02:41.137Z,21.26
2023-02-18T13:03:53.574Z,20.99
2023-02-18T13:05:10.527Z,21.00
2023-02-18T13:06:42.857Z,20.83
2023-02-18T13:07:51.276Z,20.67
2023-02-18T13:09:14.423Z,20.72
2023-02-18T13:10:22.166Z,20.72
2023-02-18T13:11:53.800Z,20.78
2023-02-18T13:13:18.796Z,20.79
2023-02-18T13:14:24.214Z,20.86
2023-02-18T13:15:38.648Z,20.85
2023-02-18T13:16:43.764Z,20.78
2023-02-18T13:17:45.968Z,20.80
2023-02-18T13:19:20.441Z,20.69
2023-02-18T13:20:26.478Z,20.82
2023-02-18T13:21:29.583Z,20.91
2023-02-18T13:22:32.348Z,20.84
2023-02-18T13:23:39.599Z,20.79
2023-02-18T13:24:45.634Z,20.92
2023-02-18T13:25:57.997Z,20.98
2023-02-18T13:27:42.192Z,20.98
2023-02-18T13:28:47.067Z,20.96
2023-02-18T13:30:07.606Z,20.92
2023-02-18T13:31:18.509Z,20.89
2023-02-18T13:32:52.886Z,20.87
2023-02-18T13:34:04.284Z,20.72
2023-02-18T13:35:46.655Z,20.65
2023-02-18T13:37:07.546Z,20.62
2023-02-18T13:38:34.933Z,20.72
2023-02-18T13:39:39.083Z,20.78
2023-02-18T13:40:41.514Z,20.85
2023-02-18T13:41:43.358Z,20.90
2023-02-18T13:42:45.094Z,20.98
2023-02-18T13:43:48.011Z,20.96
2023-02-18T13:44:55.906Z,20.98
2023-02-18T13:46:22.223Z,20.89
2023-02-18T13:47:40.948Z,20.73
2023-02-18T13:48:52.391Z,20.70
2023-02-18T13:49:54.481Z,20.52
2023-02-18T13:51:04.396Z,20.47
2023-02-18T13:52:07.257Z,20.49
2023-02-18T13:53:08.906Z,20.53
2023-02-18T13:54:14.228Z,20.57
2023-02-18T13:55:22.797Z,20.67
2023-02-18T13:56:29.842Z,20.68
2023-02-18T13:57:32.518Z,20.73
2023-02-18T13:59:18.314Z,20.70
2023-02-18T14:00:25.821Z,20.74
2023-02-18T14:02:02.358Z,20.71
2023-02-18T14:03:31.230Z,20.60
2023-02-18T14:04:42.380Z,20.54
2023-02-18T14:05:43.945Z,20.51
2023-02-18T14:07:23.638Z,20.45
2023-02-18T14:08:31.405Z,20.35
2023-02-18T14:09:38.695Z,20.35
2023-02-18T14:10:40.863Z,20.38
2023-02-18T14:11:55.880Z,20.25
2023-02-18T14:12:57.821Z,20.37
2023-02-18T14:14:33.144Z,20.43
2023-02-18T14:15:34.801Z,20.38
2023-02-18T14:17:14.983Z,20.41
2023-02-18T14:18:37.043Z,20.32
2023-02-18T14:19:39.263Z,20.18
2023-02-18T14:20:40.927Z,20.19
2023-02-18T14:21:43.827Z,20.14
2023-02-18T14:22:50.829Z,20.10
2023-02-18T14:24:01.906Z,20.12
2023-02-18T14:25:16.096Z,20.08
2023-02-18T14:26:30.046Z,20.08
2023-02-18T14:27:31.757Z,20.06
2023-02-18T14:28:36.491Z,20.01
2023-02-18T14:29:39.453Z,19.92
2023-02-18T14:30:42.551Z,19.93